Terminal Aerodrome Forecast
Issued by NWS

Home | Current Version | Previous Version | Text Only | Print | Product List | Glossary Off
Versions: 1 2 3 4 5 6 7 8 9 10 11 12 13 14 15

000
FTUS43 KGRB 041700
TAFMTW
TAF
KMTW 041733Z 0418/0518 03008KT P6SM SCT200
     FM042100 06009KT P6SM SCT150
     FM050900 04004KT P6SM BKN100 OVC200
     FM051200 09009KT P6SM SCT050 BKN120
     FM051500 11008KT P6SM BKN050=

USA.gov is the U.S. government's official web portal to all federal, state and local government web resources and services.